Time;durP1;ratioP1;P1;durP2;ratioP2;P2;SDS_P1;SDS_P2;PMS_P1;PMS_P2;Temp;Humidity;BMP_temperature;BMP_pressure;BME280_temperature;BME280_humidity;BME280_pressure;Samples;Min_cycle;Max_cycle;Signal;HPM_P1;HPM_P2
2021/12/21 07:19:23;;;;;;;6.47;3.65;;;-3.90;79.10;;;;;;5053796;28;20084;-66
2021/12/21 07:21:48;;;;;;;7.95;4.00;;;-3.90;79.30;;;;;;5054074;28;20033;-67
2021/12/21 07:24:14;;;;;;;6.97;3.70;;;-3.90;79.30;;;;;;5053933;28;20075;-66
2021/12/21 07:26:40;;;;;;;6.72;3.33;;;-4.00;79.60;;;;;;5054019;28;20109;-66
2021/12/21 07:29:05;;;;;;;7.22;3.35;;;-3.90;79.20;;;;;;5054012;28;20025;-66
2021/12/21 07:31:32;;;;;;;15.55;7.63;;;-3.90;79.10;;;;;;5053679;28;20025;-66
2021/12/21 07:33:58;;;;;;;9.38;4.30;;;-3.90;79.90;;;;;;5062562;28;20073;-65
2021/12/21 07:36:30;;;;;;;11.45;5.22;;;-4.00;79.30;;;;;;5073726;28;20029;-65
2021/12/21 07:38:56;;;;;;;17.00;7.25;;;-4.00;78.50;;;;;;5073498;28;20028;-66
2021/12/21 07:41:22;;;;;;;33.40;14.85;;;-4.00;78.50;;;;;;5073902;28;20031;-65
2021/12/21 07:43:48;;;;;;;31.20;14.15;;;-4.00;79.30;;;;;;5073533;28;20028;-66
2021/12/21 07:46:14;;;;;;;33.10;14.73;;;-4.00;79.60;;;;;;5073447;28;20131;-66
2021/12/21 07:48:40;;;;;;;61.70;27.30;;;-4.00;79.90;;;;;;5073670;28;20099;-67
2021/12/21 07:51:09;;;;;;;44.42;21.15;;;-3.90;80.10;;;;;;5073083;28;20044;-66
2021/12/21 07:53:59;;;;;;;85.85;38.53;;;-3.90;78.90;;;;;;5073970;28;20036;-66
2021/12/21 07:56:25;;;;;;;43.58;21.90;;;-3.90;79.20;;;;;;5071460;28;20028;-66
2021/12/21 07:58:50;;;;;;;66.65;34.00;;;-3.90;78.40;;;;;;5073001;28;20050;-65
2021/12/21 08:01:16;;;;;;;46.58;25.50;;;-3.90;77.90;;;;;;5072876;28;20029;-66
2021/12/21 08:03:42;;;;;;;36.45;18.90;;;-3.90;77.00;;;;;;5072775;28;20063;-65
2021/12/21 08:06:11;;;;;;;29.35;15.50;;;-3.90;76.80;;;;;;5071674;28;20047;-65
2021/12/21 08:08:40;;;;;;;17.02;9.73;;;-3.80;75.70;;;;;;5064435;28;20008;-66
2021/12/21 08:11:28;;;;;;;22.15;12.40;;;-3.80;75.80;;;;;;5067065;28;20025;-67
2021/12/21 08:13:54;;;;;;;18.17;10.45;;;-3.80;75.40;;;;;;5069261;28;20017;-67
2021/12/21 08:16:20;;;;;;;15.68;8.63;;;-3.70;73.40;;;;;;5052896;28;20179;-66
2021/12/21 08:18:46;;;;;;;18.52;10.13;;;-3.80;73.00;;;;;;5058227;28;20086;-67
2021/12/21 08:21:16;;;;;;;13.60;7.55;;;-3.80;73.20;;;;;;5068179;28;20436;-67
2021/12/21 08:23:42;;;;;;;10.40;5.20;;;-3.70;73.10;;;;;;5072635;28;20040;-67
2021/12/21 08:26:07;;;;;;;6.97;3.92;;;-3.70;71.70;;;;;;5071806;28;20024;-67
2021/12/21 08:28:33;;;;;;;8.70;4.80;;;-3.70;71.90;;;;;;5071042;28;20028;-66
2021/12/21 08:30:59;;;;;;;8.50;5.03;;;-3.60;71.10;;;;;;5070209;28;20048;-65
2021/12/21 08:33:26;;;;;;;8.05;4.75;;;-3.70;70.20;;;;;;5064772;28;20097;-67
2021/12/21 08:35:52;;;;;;;6.40;3.50;;;-3.70;69.70;;;;;;5051418;28;20488;-66
2021/12/21 08:38:19;;;;;;;6.45;3.40;;;-3.70;69.70;;;;;;5049266;28;20025;-67
2021/12/21 08:40:49;;;;;;;6.90;3.80;;;-3.80;69.70;;;;;;5050906;28;20029;-65
2021/12/21 08:43:21;;;;;;;9.02;3.65;;;-3.90;70.30;;;;;;5052040;28;20033;-67
2021/12/21 08:45:51;;;;;;;6.90;3.63;;;-4.00;71.00;;;;;;5052110;28;20535;-67
2021/12/21 08:48:17;;;;;;;5.75;3.10;;;-4.00;71.40;;;;;;5051971;28;20025;-67
2021/12/21 08:50:44;;;;;;;5.70;2.90;;;-3.90;71.70;;;;;;5052364;28;20495;-66
2021/12/21 08:53:09;;;;;;;5.82;3.15;;;-3.80;71.20;;;;;;5052133;28;20485;-66
2021/12/21 08:55:35;;;;;;;6.00;2.80;;;-3.70;71.60;;;;;;5052026;28;20072;-67
2021/12/21 08:58:01;;;;;;;4.95;2.70;;;-3.60;71.70;;;;;;5051866;28;20032;-67
2021/12/21 09:00:26;;;;;;;6.40;3.50;;;-3.40;71.70;;;;;;5051931;28;20025;-66
2021/12/21 09:02:52;;;;;;;6.18;3.10;;;-3.10;71.20;;;;;;5051641;28;20445;-66
2021/12/21 09:05:24;;;;;;;5.20;2.60;;;-2.80;71.20;;;;;;5051577;28;20025;-66
2021/12/21 09:07:57;;;;;;;6.43;3.30;;;-2.70;70.50;;;;;;5052818;28;20013;-68
2021/12/21 09:10:28;;;;;;;7.07;3.80;;;-2.70;69.60;;;;;;5051897;28;20079;-66
2021/12/21 09:12:55;;;;;;;6.70;3.60;;;-2.80;70.10;;;;;;5035861;28;20068;-65
2021/12/21 09:15:22;;;;;;;7.00;3.55;;;-3.00;69.70;;;;;;5051168;28;20804;-66
2021/12/21 09:17:49;;;;;;;5.82;3.35;;;-3.10;70.10;;;;;;5051517;28;20090;-66
2021/12/21 09:20:17;;;;;;;7.13;3.63;;;-3.20;71.50;;;;;;5051814;28;20044;-66
2021/12/21 09:22:44;;;;;;;7.72;4.07;;;-3.20;71.90;;;;;;5051614;28;20125;-67
2021/12/21 09:25:11;;;;;;;6.50;3.70;;;-3.20;71.60;;;;;;5051855;28;20017;-66
2021/12/21 09:27:38;;;;;;;6.65;3.40;;;-3.30;71.80;;;;;;5051041;28;20032;-65
2021/12/21 09:30:07;;;;;;;7.47;3.60;;;-3.30;72.10;;;;;;5051267;28;20017;-66
2021/12/21 09:32:34;;;;;;;7.63;3.95;;;-3.40;72.20;;;;;;5051356;28;20450;-66
2021/12/21 09:35:00;;;;;;;6.22;3.53;;;-3.40;72.10;;;;;;5069905;28;20056;-66
2021/12/21 09:37:26;;;;;;;7.88;4.30;;;-3.30;72.00;;;;;;5071363;28;20025;-67
2021/12/21 09:39:55;;;;;;;11.45;5.70;;;-3.30;71.20;;;;;;5071775;28;20017;-67
2021/12/21 09:42:26;;;;;;;27.92;13.27;;;-3.20;70.60;;;;;;5071745;28;20021;-66
2021/12/21 09:44:52;;;;;;;31.48;14.35;;;-3.20;71.40;;;;;;5071170;28;20069;-68
2021/12/21 09:47:18;;;;;;;15.25;7.55;;;-3.00;72.00;;;;;;5071182;28;20121;-67
2021/12/21 09:49:45;;;;;;;13.27;5.57;;;-3.00;71.30;;;;;;5071118;28;20471;-65
2021/12/21 09:52:13;;;;;;;6.78;3.33;;;-3.00;71.90;;;;;;5071229;28;20036;-67
2021/12/21 09:54:40;;;;;;;14.95;6.85;;;-3.10;71.90;;;;;;5071295;28;20056;-68
2021/12/21 09:57:07;;;;;;;25.23;10.65;;;-3.30;72.10;;;;;;5070857;28;20021;-67
2021/12/21 09:59:34;;;;;;;19.75;9.00;;;-3.40;72.40;;;;;;5071406;28;20329;-66
2021/12/21 10:02:01;;;;;;;21.80;10.80;;;-3.60;72.50;;;;;;5058984;28;20595;-67
2021/12/21 10:04:28;;;;;;;23.95;11.68;;;-3.60;72.70;;;;;;5051833;28;20021;-65
2021/12/21 10:06:56;;;;;;;15.75;8.32;;;-3.80;73.00;;;;;;5051159;28;20029;-65
2021/12/21 10:09:31;;;;;;;9.45;5.85;;;-3.90;72.40;;;;;;5051194;28;20514;-66
2021/12/21 10:12:01;;;;;;;7.65;4.63;;;-4.00;72.10;;;;;;5068507;28;20028;-67
2021/12/21 10:14:28;;;;;;;12.00;5.80;;;-4.20;72.20;;;;;;5072578;28;20028;-66
2021/12/21 10:17:02;;;;;;;10.45;5.07;;;-4.20;72.30;;;;;;5072002;28;20112;-66
2021/12/21 10:19:28;;;;;;;14.25;6.00;;;-4.20;72.90;;;;;;5071484;28;20025;-67
2021/12/21 10:21:54;;;;;;;9.02;4.82;;;-4.10;73.70;;;;;;5071476;28;20409;-68
2021/12/21 10:24:25;;;;;;;9.07;4.35;;;-4.00;73.60;;;;;;5071340;28;20020;-66
2021/12/21 10:26:53;;;;;;;7.07;3.75;;;-3.90;73.00;;;;;;5070789;28;20042;-66
2021/12/21 10:29:19;;;;;;;9.48;4.70;;;-4.00;72.60;;;;;;5070877;28;20016;-66
2021/12/21 10:31:48;;;;;;;14.23;6.57;;;-4.00;72.80;;;;;;5070944;28;20098;-66
2021/12/21 10:34:18;;;;;;;7.57;3.97;;;-4.00;71.80;;;;;;5057014;28;20499;-68
2021/12/21 10:36:49;;;;;;;6.43;3.35;;;-4.10;69.90;;;;;;5050880;28;20473;-66
2021/12/21 10:39:28;;;;;;;12.77;5.07;;;-4.10;67.90;;;;;;5051646;28;20519;-67
2021/12/21 10:41:59;;;;;;;10.93;5.13;;;-4.10;66.00;;;;;;5050880;28;20107;-66
2021/12/21 10:44:24;;;;;;;11.05;4.95;;;-4.10;65.40;;;;;;5050501;28;20462;-66
2021/12/21 10:46:53;;;;;;;6.60;3.45;;;-4.20;65.40;;;;;;5051109;28;20078;-67
2021/12/21 10:49:22;;;;;;;6.93;3.67;;;-4.20;64.20;;;;;;5049361;28;20056;-65
2021/12/21 10:52:05;;;;;;;6.18;3.38;;;-4.20;63.10;;;;;;5050618;28;20033;-66
2021/12/21 10:54:37;;;;;;;;;;;-4.30;61.50;;;;;;5050755;28;20108;-66
2021/12/21 10:57:06;;;;;;;9.93;4.10;;;-4.40;60.10;;;;;;5050826;28;20360;-67
2021/12/21 10:59:33;;;;;;;8.02;3.90;;;-4.40;59.10;;;;;;5050588;28;20029;-67
2021/12/21 11:02:13;;;;;;;13.15;5.70;;;-4.50;57.30;;;;;;5050417;28;20198;-66
2021/12/21 11:04:40;;;;;;;8.77;3.80;;;-4.50;56.40;;;;;;5050309;28;20029;-64
2021/12/21 11:10:10;;;;;;;11.40;4.80;;;-4.60;56.10;;;;;;5052013;28;20031;-65
2021/12/21 11:12:47;;;;;;;11.88;4.30;;;-4.60;55.10;;;;;;5054030;28;20333;-67
2021/12/21 11:15:16;;;;;;;8.50;3.80;;;-4.70;56.00;;;;;;5053900;28;20017;-67
2021/12/21 11:17:43;;;;;;;7.93;4.07;;;-4.70;55.80;;;;;;5053711;28;20044;-65
2021/12/21 11:20:11;;;;;;;7.85;4.03;;;-4.70;56.90;;;;;;5053869;28;20100;-69
2021/12/21 11:22:40;;;;;;;10.52;4.88;;;-4.50;57.50;;;;;;5053899;28;20017;-66
2021/12/21 11:25:08;;;;;;;7.40;3.70;;;-3.90;58.60;;;;;;5052369;28;20025;-68
2021/12/21 11:27:36;;;;;;;13.50;6.93;;;-2.90;59.30;;;;;;5053783;28;20427;-66
2021/12/21 11:30:05;;;;;;;19.48;9.30;;;-1.90;57.60;;;;;;5056512;28;20126;-66
2021/12/21 11:32:33;;;;;;;15.10;7.38;;;-0.90;55.70;;;;;;5066486;28;20025;-67
2021/12/21 11:37:50;;;;;;;24.52;9.32;;;0.00;50.90;;;;;;5033173;28;20488;-66
2021/12/21 11:40:19;;;;;;;20.55;8.20;;;-0.30;49.00;;;;;;5053836;28;20460;-66
2021/12/21 11:43:01;;;;;;;13.32;5.70;;;-0.70;48.40;;;;;;5061119;28;20479;-66
2021/12/21 11:45:33;;;;;;;18.83;7.80;;;-0.60;47.80;;;;;;5073630;28;20336;-66
2021/12/21 11:48:10;;;;;;;8.50;3.70;;;-0.80;46.80;;;;;;5073185;28;20017;-67
2021/12/21 11:50:40;;;;;;;7.22;3.05;;;-1.00;47.00;;;;;;5056367;28;20488;-66
2021/12/21 11:53:13;;;;;;;10.23;4.38;;;-1.30;47.00;;;;;;5052544;28;20021;-66
2021/12/21 11:55:42;;;;;;;8.52;4.07;;;-1.50;49.10;;;;;;5053340;28;20032;-66
2021/12/21 11:58:26;;;;;;;7.93;3.45;;;-1.60;49.20;;;;;;5053447;28;20056;-65
2021/12/21 12:00:59;;;;;;;6.80;2.90;;;-1.70;49.30;;;;;;5052522;28;20057;-66
2021/12/21 12:03:27;;;;;;;10.15;4.22;;;-1.80;49.00;;;;;;5052881;28;20037;-65
2021/12/21 12:06:04;;;;;;;6.35;3.20;;;-1.90;50.00;;;;;;5052388;28;20110;-67
2021/12/21 12:08:49;;;;;;;5.10;2.30;;;-1.90;50.20;;;;;;5050953;28;20072;-66
2021/12/21 12:11:36;;;;;;;5.38;2.30;;;-2.20;49.70;;;;;;5052622;28;20480;-67
2021/12/21 12:14:10;;;;;;;5.20;2.60;;;-2.70;50.30;;;;;;5065671;28;20031;-66
2021/12/21 12:16:43;;;;;;;6.18;2.78;;;-3.10;50.90;;;;;;5062544;28;20041;-66
2021/12/21 12:19:11;;;;;;;6.68;2.65;;;-3.50;51.80;;;;;;5071427;28;20452;-68
2021/12/21 12:21:36;;;;;;;5.28;2.67;;;-3.80;52.10;;;;;;5070850;28;20369;-66
2021/12/21 12:24:04;;;;;;;6.72;2.72;;;-4.20;52.50;;;;;;5072407;28;20025;-67
2021/12/21 12:26:35;;;;;;;5.25;2.60;;;-4.50;53.50;;;;;;5072694;28;20460;-68
2021/12/21 12:29:19;;;;;;;5.18;2.42;;;-4.70;54.30;;;;;;5071625;28;20016;-65
2021/12/21 12:32:05;;;;;;;4.78;2.58;;;-4.90;54.50;;;;;;5072259;28;20017;-66
2021/12/21 12:34:34;;;;;;;5.78;2.90;;;-5.10;54.60;;;;;;5071215;28;20025;-65
2021/12/21 12:37:12;;;;;;;5.90;2.55;;;-5.30;55.30;;;;;;5070746;28;20036;-67
2021/12/21 12:39:44;;;;;;;6.00;3.03;;;-5.40;55.10;;;;;;5072263;28;20020;-67
2021/12/21 12:42:13;;;;;;;7.50;3.38;;;-5.60;56.20;;;;;;5072286;28;20480;-67
2021/12/21 12:44:41;;;;;;;6.68;3.55;;;-5.80;56.60;;;;;;5072254;28;20406;-66
2021/12/21 12:47:11;;;;;;;7.95;3.40;;;-5.90;56.80;;;;;;5071843;28;20032;-67
2021/12/21 12:49:42;;;;;;;6.28;3.13;;;-6.10;57.70;;;;;;5071975;28;20029;-67
2021/12/21 12:52:15;;;;;;;6.40;2.90;;;-6.20;58.30;;;;;;5071966;28;20028;-67
2021/12/21 12:54:57;;;;;;;6.03;2.63;;;-6.30;58.50;;;;;;5071815;28;20477;-66
2021/12/21 12:57:33;;;;;;;7.22;3.35;;;-6.40;59.20;;;;;;5071841;28;20024;-67
2021/12/21 13:00:27;;;;;;;8.55;3.78;;;-6.50;59.00;;;;;;5071747;28;20021;-66
2021/12/21 13:03:08;;;;;;;20.95;8.30;;;-6.60;59.10;;;;;;5067572;28;20094;-65
2021/12/21 13:05:40;;;;;;;26.45;10.98;;;-6.70;59.80;;;;;;5071517;28;20486;-66
2021/12/21 13:08:16;;;;;;;26.02;10.07;;;-6.70;60.60;;;;;;5071961;28;20056;-67
2021/12/21 13:10:48;;;;;;;25.77;9.57;;;-6.50;61.00;;;;;;5072688;28;20037;-65
2021/12/21 13:13:14;;;;;;;12.68;5.50;;;-6.50;60.60;;;;;;5071371;28;20479;-66
2021/12/21 13:15:49;;;;;;;18.05;6.47;;;-6.60;60.70;;;;;;5071080;28;20475;-66
2021/12/21 13:18:17;;;;;;;21.45;7.63;;;-6.70;61.10;;;;;;5070300;28;20130;-66
2021/12/21 13:20:46;;;;;;;25.95;9.75;;;-6.80;62.00;;;;;;5071234;28;20029;-67
2021/12/21 13:23:14;;;;;;;22.75;10.00;;;-6.60;63.00;;;;;;5071151;28;20028;-66
2021/12/21 13:26:07;;;;;;;14.23;7.18;;;-6.30;61.80;;;;;;5067067;28;20428;-66
2021/12/21 13:28:44;;;;;;;8.80;4.05;;;-6.30;60.90;;;;;;5051368;28;20025;-66
2021/12/21 13:31:10;;;;;;;6.82;3.58;;;-6.50;60.90;;;;;;5051679;28;20056;-66
2021/12/21 13:33:39;;;;;;;8.48;3.40;;;-6.80;61.50;;;;;;5050383;28;20060;-67
2021/12/21 13:36:07;;;;;;;9.40;3.63;;;-7.00;62.40;;;;;;5051328;28;20548;-66
2021/12/21 13:38:36;;;;;;;7.25;3.65;;;-7.20;63.50;;;;;;5051313;28;20457;-66
2021/12/21 13:41:13;;;;;;;7.78;4.20;;;-7.40;64.60;;;;;;5051302;28;20120;-66
2021/12/21 13:43:56;;;;;;;7.50;3.85;;;-7.50;66.40;;;;;;5051283;28;20024;-67
2021/12/21 13:46:22;;;;;;;6.00;3.15;;;-7.70;67.40;;;;;;5051146;28;20031;-66
2021/12/21 13:48:56;;;;;;;7.28;3.83;;;-7.80;68.00;;;;;;5051223;28;20033;-66
2021/12/21 13:51:23;;;;;;;8.88;3.75;;;-8.00;68.60;;;;;;5051641;28;20029;-66
2021/12/21 13:53:52;;;;;;;8.10;3.72;;;-8.10;69.50;;;;;;5051069;28;20018;-66
2021/12/21 13:56:25;;;;;;;7.82;3.72;;;-8.20;70.00;;;;;;5051134;28;20049;-65
2021/12/21 13:58:54;;;;;;;7.07;3.60;;;-8.30;70.20;;;;;;5050982;28;20075;-66
2021/12/21 14:01:23;;;;;;;7.15;3.53;;;-8.30;70.70;;;;;;5049521;28;20029;-66
2021/12/21 14:03:53;;;;;;;6.93;3.50;;;-8.30;70.40;;;;;;5050837;28;20029;-67
2021/12/21 14:06:22;;;;;;;7.95;3.60;;;-8.30;69.60;;;;;;5050686;28;20380;-66
2021/12/21 14:08:50;;;;;;;6.25;3.30;;;-8.40;68.60;;;;;;5049538;28;20052;-66
2021/12/21 14:11:17;;;;;;;7.53;3.42;;;-8.50;67.70;;;;;;5051069;28;20429;-65
2021/12/21 14:13:46;;;;;;;7.78;3.45;;;-8.50;67.60;;;;;;5050419;28;20055;-66
2021/12/21 14:16:21;;;;;;;7.03;3.33;;;-8.60;68.60;;;;;;5049046;28;20492;-67
2021/12/21 14:18:53;;;;;;;7.55;3.30;;;-8.60;69.50;;;;;;5051593;28;20393;-66
2021/12/21 14:21:24;;;;;;;8.07;3.40;;;-8.70;69.40;;;;;;5050823;28;20433;-66
2021/12/21 14:24:00;;;;;;;7.50;3.95;;;-8.70;69.00;;;;;;5050588;28;20029;-66
2021/12/21 14:26:29;;;;;;;7.45;3.60;;;-8.70;69.70;;;;;;5061270;28;20365;-66
2021/12/21 14:29:09;;;;;;;9.13;3.90;;;-8.70;69.40;;;;;;5071283;28;20414;-66
2021/12/21 14:31:49;;;;;;;8.85;4.53;;;-8.80;69.10;;;;;;5070476;28;20496;-66
2021/12/21 14:34:27;;;;;;;13.07;6.00;;;-8.80;69.50;;;;;;5070417;28;20123;-65
2021/12/21 14:36:54;;;;;;;12.50;6.07;;;-8.90;69.30;;;;;;5069117;28;20056;-68
2021/12/21 14:39:23;;;;;;;19.33;8.77;;;-8.90;69.00;;;;;;5070566;28;20029;-67
2021/12/21 14:41:51;;;;;;;16.35;7.80;;;-9.00;69.10;;;;;;5070494;28;20027;-66
2021/12/21 14:44:20;;;;;;;8.65;4.05;;;-9.00;69.00;;;;;;5072568;28;20048;-65
2021/12/21 14:47:06;;;;;;;7.35;3.53;;;-9.10;69.40;;;;;;5073704;28;20024;-65
2021/12/21 14:49:41;;;;;;;10.35;5.80;;;-9.20;70.10;;;;;;5074453;28;20116;-66
2021/12/21 14:52:34;;;;;;;8.80;4.70;;;-9.20;70.70;;;;;;5074222;28;20028;-65
2021/12/21 14:55:08;;;;;;;;;;;-9.20;70.30;;;;;;5074360;28;20031;-66
2021/12/21 14:57:36;;;;;;;10.13;4.97;;;-9.30;69.90;;;;;;5074183;28;20247;-66
2021/12/21 15:00:12;;;;;;;9.63;4.30;;;-9.30;69.60;;;;;;5072590;28;20025;-66
2021/12/21 15:05:06;;;;;;;12.95;5.88;;;-9.50;69.20;;;;;;5073966;28;20426;-67
2021/12/21 15:07:32;;;;;;;16.38;6.85;;;-9.50;69.60;;;;;;5073839;28;20025;-67
2021/12/21 15:09:59;;;;;;;21.25;9.60;;;-9.60;70.00;;;;;;5073962;28;20024;-66
2021/12/21 15:12:25;;;;;;;15.38;6.95;;;-9.60;70.50;;;;;;5073800;28;20027;-67
2021/12/21 15:14:53;;;;;;;14.63;6.95;;;-9.60;70.60;;;;;;5073907;28;20024;-68
2021/12/21 15:17:19;;;;;;;18.52;9.15;;;-9.70;70.70;;;;;;5073754;28;20044;-66
2021/12/21 15:19:45;;;;;;;25.00;14.90;;;-9.70;70.80;;;;;;5073476;28;20040;-66
2021/12/21 15:22:10;;;;;;;15.63;7.65;;;-9.80;70.70;;;;;;5073127;28;20027;-67
2021/12/21 15:24:39;;;;;;;13.10;5.90;;;-9.80;70.80;;;;;;5073631;28;20479;-66
2021/12/21 15:27:08;;;;;;;15.68;6.57;;;-9.80;70.80;;;;;;5073584;28;20063;-68
2021/12/21 15:29:35;;;;;;;11.68;5.43;;;-9.80;71.10;;;;;;5073498;28;20361;-66
2021/12/21 15:32:01;;;;;;;11.45;5.43;;;-9.80;70.70;;;;;;5073483;28;20020;-66
2021/12/21 15:34:28;;;;;;;10.75;5.35;;;-9.80;70.50;;;;;;5073136;28;20100;-65
2021/12/21 15:36:54;;;;;;;9.68;4.43;;;-9.80;70.50;;;;;;5073316;28;20104;-66
2021/12/21 15:39:20;;;;;;;10.10;4.70;;;-9.80;70.20;;;;;;5073283;28;20539;-65
2021/12/21 15:41:51;;;;;;;11.07;5.18;;;-9.80;70.10;;;;;;5073259;28;20024;-65
2021/12/21 15:44:23;;;;;;;9.20;4.63;;;-9.80;70.30;;;;;;5072927;28;20020;-66
2021/12/21 15:46:50;;;;;;;9.85;4.70;;;-9.80;69.80;;;;;;5073239;28;20375;-67
2021/12/21 15:49:16;;;;;;;12.25;5.13;;;-9.80;69.80;;;;;;5073130;28;20024;-66
2021/12/21 15:51:42;;;;;;;10.68;4.85;;;-9.80;69.80;;;;;;5073137;28;20475;-65
2021/12/21 15:54:11;;;;;;;13.18;5.50;;;-9.90;69.60;;;;;;5073008;28;20168;-66
2021/12/21 15:56:37;;;;;;;13.73;6.00;;;-9.90;69.50;;;;;;5072409;28;20100;-67
2021/12/21 15:59:03;;;;;;;17.63;8.88;;;-9.80;69.60;;;;;;5073196;28;20024;-66
2021/12/21 16:01:29;;;;;;;15.10;7.25;;;-9.80;69.60;;;;;;5073266;28;20029;-69
2021/12/21 16:03:55;;;;;;;10.90;4.38;;;-9.90;69.60;;;;;;5072863;28;20020;-68
2021/12/21 16:06:20;;;;;;;8.07;4.10;;;-9.90;69.70;;;;;;5072592;28;20070;-67
2021/12/21 16:08:46;;;;;;;14.70;7.22;;;-9.90;69.90;;;;;;5072704;28;20021;-66
2021/12/21 16:11:13;;;;;;;12.20;5.60;;;-9.90;70.30;;;;;;5072805;28;20021;-66
2021/12/21 16:13:39;;;;;;;9.75;4.90;;;-9.90;70.20;;;;;;5072888;28;20024;-66
2021/12/21 16:16:05;;;;;;;9.88;5.28;;;-9.90;70.20;;;;;;5071246;28;20578;-67
2021/12/21 16:18:30;;;;;;;13.85;6.57;;;-9.90;70.20;;;;;;5072511;28;20024;-67
2021/12/21 16:20:56;;;;;;;15.32;7.63;;;-10.00;70.50;;;;;;5072959;28;20034;-66
2021/12/21 16:23:22;;;;;;;12.93;7.13;;;-10.00;70.70;;;;;;5071411;28;20111;-65
2021/12/21 16:25:48;;;;;;;15.50;7.43;;;-10.00;70.80;;;;;;5066611;28;20064;-66
2021/12/21 16:28:14;;;;;;;14.48;7.40;;;-10.00;70.80;;;;;;5052450;28;20013;-65
2021/12/21 16:30:44;;;;;;;13.90;7.72;;;-10.00;70.80;;;;;;5052548;28;20028;-68
2021/12/21 16:33:10;;;;;;;16.38;8.40;;;-10.10;71.00;;;;;;5051158;28;20047;-66
2021/12/21 16:35:36;;;;;;;15.68;7.72;;;-10.10;71.00;;;;;;5052536;28;20053;-67
2021/12/21 16:38:02;;;;;;;15.25;8.52;;;-10.20;71.20;;;;;;5052157;28;20090;-66
2021/12/21 16:40:28;;;;;;;22.90;11.63;;;-10.10;71.40;;;;;;5052346;28;20056;-66
2021/12/21 16:42:58;;;;;;;22.70;11.00;;;-10.20;71.50;;;;;;5052099;28;20029;-67
2021/12/21 16:45:23;;;;;;;24.42;13.95;;;-10.20;71.90;;;;;;5052171;28;20104;-67
2021/12/21 16:47:50;;;;;;;32.90;18.13;;;-10.10;72.20;;;;;;5052117;28;20433;-67
2021/12/21 16:50:16;;;;;;;40.13;18.00;;;-10.10;72.40;;;;;;5052440;28;20095;-66
2021/12/21 16:52:42;;;;;;;39.17;17.23;;;-10.10;72.60;;;;;;5052150;28;20095;-66
2021/12/21 16:55:08;;;;;;;40.58;17.42;;;-10.00;72.70;;;;;;5051959;28;20028;-66
2021/12/21 16:57:34;;;;;;;37.83;17.90;;;-10.00;72.80;;;;;;5052021;28;20044;-67
2021/12/21 17:00:02;;;;;;;27.35;13.50;;;-9.80;72.90;;;;;;5051868;28;20063;-67
2021/12/21 17:02:29;;;;;;;16.38;8.90;;;-9.80;72.60;;;;;;5051750;28;20116;-65
2021/12/21 17:04:55;;;;;;;15.68;8.77;;;-9.70;72.40;;;;;;5051448;28;20391;-67
2021/12/21 17:07:22;;;;;;;22.50;9.13;;;-9.70;72.30;;;;;;5050183;28;20091;-66
2021/12/21 17:09:52;;;;;;;39.38;17.33;;;-9.60;72.20;;;;;;5051624;28;20468;-67
2021/12/21 17:12:18;;;;;;;27.13;11.15;;;-9.50;72.20;;;;;;5051448;28;20053;-67
2021/12/21 17:14:44;;;;;;;33.97;13.20;;;-9.40;71.90;;;;;;5051151;28;20029;-67
2021/12/21 17:17:09;;;;;;;43.13;19.60;;;-9.40;71.70;;;;;;5051438;28;20053;-66
2021/12/21 17:19:35;;;;;;;26.02;12.40;;;-9.40;71.50;;;;;;5051344;28;20464;-66
2021/12/21 17:22:01;;;;;;;24.60;11.65;;;-9.40;71.30;;;;;;5051505;28;20219;-66
2021/12/21 17:24:27;;;;;;;31.42;14.38;;;-9.30;70.60;;;;;;5051139;28;20041;-66
2021/12/21 17:26:53;;;;;;;24.50;11.82;;;-9.40;70.30;;;;;;5066015;28;20035;-66
2021/12/21 17:29:18;;;;;;;18.27;9.18;;;-9.40;70.30;;;;;;5069878;28;20030;-65
2021/12/21 17:31:44;;;;;;;18.70;8.10;;;-9.40;69.90;;;;;;5071452;28;20028;-66
2021/12/21 17:34:10;;;;;;;18.48;9.15;;;-9.40;70.00;;;;;;5071297;28;20054;-68
2021/12/21 17:36:36;;;;;;;19.27;8.30;;;-9.40;69.60;;;;;;5071356;28;20032;-67
2021/12/21 17:39:05;;;;;;;14.60;7.32;;;-9.40;69.20;;;;;;5071173;28;20055;-66
2021/12/21 17:41:31;;;;;;;18.88;9.45;;;-9.40;69.50;;;;;;5069976;28;20487;-66
2021/12/21 17:43:57;;;;;;;20.65;10.18;;;-9.40;69.70;;;;;;5071076;28;20032;-66
2021/12/21 17:46:23;;;;;;;22.45;11.13;;;-9.50;69.60;;;;;;5070919;28;20560;-66
2021/12/21 17:48:49;;;;;;;20.75;9.40;;;-9.40;69.90;;;;;;5071199;28;20029;-66
2021/12/21 17:51:15;;;;;;;19.33;10.40;;;-9.40;69.60;;;;;;5071392;28;20045;-66
2021/12/21 17:53:41;;;;;;;24.08;12.50;;;-9.50;69.50;;;;;;5071153;28;20044;-66
2021/12/21 17:56:08;;;;;;;16.55;8.88;;;-9.50;69.90;;;;;;5071174;28;20032;-66
2021/12/21 17:58:34;;;;;;;15.57;8.13;;;-9.50;70.20;;;;;;5070997;28;20495;-67
2021/12/21 18:00:59;;;;;;;26.15;12.30;;;-9.60;70.20;;;;;;5070931;28;20047;-66
2021/12/21 18:03:25;;;;;;;24.38;12.45;;;-9.60;70.30;;;;;;5070775;28;20028;-66
2021/12/21 18:05:51;;;;;;;16.65;9.32;;;-9.70;70.30;;;;;;5070756;28;20111;-67
2021/12/21 18:08:16;;;;;;;13.23;8.05;;;-9.70;70.40;;;;;;5070813;28;20099;-66
2021/12/21 18:10:43;;;;;;;12.27;7.38;;;-9.80;70.40;;;;;;5070815;28;20424;-67
2021/12/21 18:13:09;;;;;;;13.68;8.70;;;-9.90;70.70;;;;;;5070670;28;20079;-66
2021/12/21 18:15:35;;;;;;;16.05;8.30;;;-9.90;71.00;;;;;;5070762;28;20074;-66
2021/12/21 18:18:02;;;;;;;12.10;7.38;;;-9.90;70.90;;;;;;5071105;28;20029;-65
2021/12/21 18:20:30;;;;;;;13.43;7.95;;;-10.00;70.90;;;;;;5074869;28;20028;-68
2021/12/21 18:22:57;;;;;;;13.02;7.03;;;-10.10;71.00;;;;;;5075016;28;20017;-68
2021/12/21 18:25:24;;;;;;;13.73;7.10;;;-10.10;71.00;;;;;;5072663;28;20035;-67
2021/12/21 18:27:51;;;;;;;15.23;7.88;;;-10.10;71.20;;;;;;5054979;28;20036;-68
2021/12/21 18:30:16;;;;;;;14.80;7.82;;;-10.20;71.20;;;;;;5054782;28;20021;-66
2021/12/21 18:32:42;;;;;;;13.52;7.38;;;-10.20;71.30;;;;;;5054858;28;20021;-67
2021/12/21 18:35:09;;;;;;;15.68;8.07;;;-10.20;71.40;;;;;;5054724;28;20496;-67
2021/12/21 18:37:42;;;;;;;16.60;9.10;;;-10.30;71.60;;;;;;5054813;28;20044;-66
2021/12/21 18:40:16;;;;;;;17.25;9.15;;;-10.40;71.80;;;;;;5054422;28;20021;-66
2021/12/21 18:42:42;;;;;;;16.02;8.05;;;-10.40;72.00;;;;;;5054832;28;20517;-67
2021/12/21 18:45:09;;;;;;;16.15;8.40;;;-10.40;72.00;;;;;;5054674;28;20539;-67
2021/12/21 18:47:35;;;;;;;23.30;10.63;;;-10.40;72.00;;;;;;5054575;28;20025;-67
2021/12/21 18:50:04;;;;;;;25.10;10.27;;;-10.40;72.10;;;;;;5054645;28;20048;-68
2021/12/21 18:52:29;;;;;;;19.67;9.23;;;-10.40;72.20;;;;;;5054539;28;20039;-68
2021/12/21 18:54:55;;;;;;;19.15;7.80;;;-10.40;72.10;;;;;;5054641;28;20548;-66
2021/12/21 18:57:21;;;;;;;18.23;8.43;;;-10.40;72.10;;;;;;5054413;28;20037;-65
2021/12/21 18:59:47;;;;;;;17.00;8.38;;;-10.40;72.40;;;;;;5054406;28;20044;-68
2021/12/21 19:02:13;;;;;;;23.98;8.88;;;-10.40;72.70;;;;;;5053982;28;20037;-65
2021/12/21 19:04:38;;;;;;;18.52;7.70;;;-10.40;72.60;;;;;;5052841;28;20025;-67
2021/12/21 19:07:05;;;;;;;17.83;8.48;;;-10.40;72.40;;;;;;5054034;28;20085;-66
2021/12/21 19:09:31;;;;;;;19.20;8.75;;;-10.40;72.30;;;;;;5053870;28;20104;-66
2021/12/21 19:11:58;;;;;;;17.63;8.35;;;-10.40;72.50;;;;;;5053957;28;20032;-65
2021/12/21 19:14:23;;;;;;;19.65;9.20;;;-10.40;72.60;;;;;;5053749;28;20055;-65
2021/12/21 19:16:49;;;;;;;16.33;8.77;;;-10.50;72.70;;;;;;5053154;28;20085;-67
2021/12/21 19:19:15;;;;;;;18.80;9.02;;;-10.50;72.80;;;;;;5052768;28;20033;-67
2021/12/21 19:21:41;;;;;;;17.20;9.00;;;-10.50;72.70;;;;;;5052604;28;20029;-66
2021/12/21 19:24:10;;;;;;;19.98;8.93;;;-10.50;72.90;;;;;;5052304;28;20431;-67
2021/12/21 19:26:36;;;;;;;16.90;9.25;;;-10.60;73.00;;;;;;5064774;28;20074;-66
2021/12/21 19:29:05;;;;;;;16.58;8.85;;;-10.60;73.10;;;;;;5072714;28;20025;-67
2021/12/21 19:31:31;;;;;;;14.48;8.65;;;-10.60;73.00;;;;;;5071475;28;20112;-68
2021/12/21 19:33:57;;;;;;;15.65;9.15;;;-10.60;73.00;;;;;;5072417;28;20120;-66
2021/12/21 19:36:23;;;;;;;16.10;8.63;;;-10.60;73.10;;;;;;5072394;28;20044;-67
2021/12/21 19:38:49;;;;;;;15.63;8.48;;;-10.60;73.20;;;;;;5072458;28;20036;-67
2021/12/21 19:41:17;;;;;;;14.98;8.15;;;-10.60;73.30;;;;;;5072499;28;20025;-66
2021/12/21 19:43:43;;;;;;;14.50;8.43;;;-10.60;73.40;;;;;;5072326;28;20020;-65
2021/12/21 19:46:09;;;;;;;15.85;7.95;;;-10.60;74.00;;;;;;5072689;28;20452;-66
2021/12/21 19:48:35;;;;;;;14.18;7.65;;;-10.70;73.80;;;;;;5072386;28;20033;-68
2021/12/21 19:51:01;;;;;;;15.65;8.32;;;-10.70;74.00;;;;;;5072223;28;20033;-68
2021/12/21 19:53:26;;;;;;;14.95;8.07;;;-10.70;74.10;;;;;;5072305;28;20415;-67
2021/12/21 19:55:54;;;;;;;14.23;7.22;;;-10.70;74.30;;;;;;5072328;28;20487;-67
2021/12/21 19:58:20;;;;;;;12.02;6.72;;;-10.70;74.50;;;;;;5072010;28;20103;-66
2021/12/21 20:00:46;;;;;;;15.55;7.75;;;-10.70;74.80;;;;;;5072123;28;20036;-65
2021/12/21 20:03:11;;;;;;;14.45;7.72;;;-10.70;74.80;;;;;;5072247;28;20036;-66
2021/12/21 20:05:38;;;;;;;13.88;7.65;;;-10.70;74.90;;;;;;5070786;28;20395;-66
2021/12/21 20:08:05;;;;;;;13.93;7.53;;;-10.80;74.90;;;;;;5072592;28;20044;-66
2021/12/21 20:10:32;;;;;;;14.23;8.00;;;-10.70;74.90;;;;;;5071950;28;20074;-68
2021/12/21 20:13:05;;;;;;;16.52;7.90;;;-10.70;74.90;;;;;;5072190;28;20107;-67